createdAt,value
2022-10-05T00:01:49.250Z,97122.19
2022-10-05T00:04:19.115Z,97125.41
2022-10-05T00:06:49.242Z,97108.94
2022-10-05T00:09:19.052Z,97124.59
2022-10-05T00:11:47.208Z,97123.00
2022-10-05T00:14:17.894Z,97125.72
2022-10-05T00:16:46.227Z,97120.63
2022-10-05T00:19:22.390Z,97128.94
2022-10-05T00:21:50.448Z,97128.88
2022-10-05T00:24:20.826Z,97128.09
2022-10-05T00:26:54.209Z,97131.56
2022-10-05T00:29:25.613Z,97118.47
2022-10-05T00:31:53.594Z,97132.13
2022-10-05T00:34:22.967Z,97129.00
2022-10-05T00:36:50.878Z,97127.78
2022-10-05T00:39:19.332Z,97125.97
2022-10-05T00:41:59.636Z,97121.38
2022-10-05T00:44:36.398Z,97107.38
2022-10-05T00:47:12.215Z,97110.31
2022-10-05T00:49:55.310Z,97115.66
2022-10-05T00:52:27.783Z,97125.97
2022-10-05T00:55:03.618Z,97117.88
2022-10-05T00:57:39.172Z,97121.34
2022-10-05T01:00:09.672Z,97120.34
2022-10-05T01:02:47.706Z,97114.00
2022-10-05T01:05:21.965Z,97114.72
2022-10-05T01:07:54.626Z,97071.06
2022-10-05T01:10:28.615Z,97116.78
2022-10-05T01:13:04.573Z,97115.16
2022-10-05T01:15:36.100Z,97000.44
2022-10-05T01:18:07.155Z,97103.59
2022-10-05T01:20:47.501Z,97098.78
2022-10-05T01:23:49.181Z,97079.75
2022-10-05T01:26:39.305Z,97087.91
2022-10-05T01:29:12.389Z,97078.91
2022-10-05T01:31:45.543Z,97056.50
2022-10-05T01:34:18.329Z,97070.59
2022-10-05T01:36:52.998Z,97063.25
2022-10-05T01:39:28.435Z,97066.03
2022-10-05T01:42:04.913Z,97066.22
2022-10-05T01:44:37.781Z,97051.13
2022-10-05T01:47:10.819Z,97044.50
2022-10-05T01:49:39.733Z,97034.56
2022-10-05T01:52:21.030Z,97045.94
2022-10-05T01:54:58.126Z,97044.44
2022-10-05T01:57:36.249Z,97042.66
2022-10-05T02:00:09.485Z,97032.66
2022-10-05T02:02:39.690Z,96999.16
2022-10-05T02:05:12.286Z,97032.97
2022-10-05T02:07:43.530Z,97028.06
2022-10-05T02:10:24.378Z,97031.63
2022-10-05T02:12:55.817Z,97024.81
2022-10-05T02:15:27.498Z,97008.59
2022-10-05T02:17:58.936Z,97016.28
2022-10-05T02:20:29.938Z,97020.50
2022-10-05T02:23:00.725Z,97019.13
2022-10-05T02:25:30.850Z,97013.47
2022-10-05T02:28:02.468Z,97009.66
2022-10-05T02:30:32.948Z,97012.22
2022-10-05T02:33:03.018Z,97012.50
2022-10-05T02:35:31.007Z,97006.09
2022-10-05T02:38:08.009Z,96997.75
2022-10-05T02:40:44.136Z,97010.81
2022-10-05T02:43:20.747Z,97010.97
2022-10-05T02:45:55.176Z,97003.44
2022-10-05T02:48:32.653Z,97000.63
2022-10-05T02:51:05.129Z,96998.06
2022-10-05T02:53:37.037Z,96994.63
2022-10-05T02:56:14.601Z,96999.75
2022-10-05T02:58:47.390Z,97003.44
2022-10-05T03:01:22.774Z,97002.47
2022-10-05T03:03:57.246Z,96997.16
2022-10-05T03:06:29.511Z,97005.25
2022-10-05T03:09:01.538Z,96994.94
2022-10-05T03:11:36.726Z,96995.53
2022-10-05T03:14:08.308Z,96994.81
2022-10-05T03:16:45.456Z,96990.50
2022-10-05T03:19:23.274Z,96997.31
2022-10-05T03:21:59.051Z,96990.06
2022-10-05T03:24:48.389Z,96993.47
2022-10-05T03:27:26.396Z,96981.31
2022-10-05T03:29:59.029Z,96991.25
2022-10-05T03:32:34.024Z,96986.53
2022-10-05T03:35:06.314Z,96985.09
2022-10-05T03:37:40.448Z,96994.72
2022-10-05T03:40:11.357Z,96990.50
2022-10-05T03:42:50.867Z,96988.13
2022-10-05T03:45:24.262Z,96993.44
2022-10-05T03:48:01.456Z,96986.78
2022-10-05T03:50:40.617Z,96989.31
2022-10-05T03:53:13.019Z,96981.66
2022-10-05T03:55:43.322Z,96959.47
2022-10-05T03:58:16.264Z,96993.13
2022-10-05T04:00:46.047Z,96988.13
2022-10-05T04:03:19.916Z,96991.50
2022-10-05T04:05:50.531Z,96975.13
2022-10-05T04:08:23.089Z,96979.44
2022-10-05T04:10:52.886Z,96993.75
2022-10-05T04:13:24.516Z,96994.75
2022-10-05T04:15:58.806Z,96980.53
2022-10-05T04:18:31.937Z,96947.19
2022-10-05T04:21:03.256Z,96955.72
2022-10-05T04:23:40.158Z,96988.19
2022-10-05T04:26:11.734Z,96985.31
2022-10-05T04:28:46.942Z,96986.28
2022-10-05T04:31:19.697Z,96984.50
2022-10-05T04:33:58.112Z,96990.66
2022-10-05T04:36:28.249Z,96984.69
2022-10-05T04:39:06.506Z,96969.09
2022-10-05T04:41:50.057Z,96973.97
2022-10-05T04:44:28.107Z,96986.88
2022-10-05T04:47:10.141Z,96979.50
2022-10-05T04:49:50.638Z,96995.44
2022-10-05T04:52:25.195Z,96984.31
2022-10-05T04:55:10.133Z,96997.72
2022-10-05T04:57:42.961Z,96999.44
2022-10-05T05:00:21.398Z,96997.00
2022-10-05T05:03:05.012Z,97000.31
2022-10-05T05:06:05.106Z,97004.75
2022-10-05T05:08:43.399Z,96999.06
2022-10-05T05:11:20.066Z,97010.00
2022-10-05T05:14:17.769Z,97008.75
2022-10-05T05:16:47.562Z,97000.66
2022-10-05T05:19:32.153Z,97002.19
2022-10-05T05:22:04.922Z,97001.03
2022-10-05T05:24:42.650Z,97011.38
2022-10-05T05:27:45.848Z,97009.06
2022-10-05T05:30:24.514Z,97001.28
2022-10-05T05:33:04.627Z,97020.38
2022-10-05T05:36:02.814Z,97000.94
2022-10-05T05:38:35.462Z,97012.78
2022-10-05T05:41:10.154Z,97023.13
2022-10-05T05:43:50.309Z,97020.56
2022-10-05T05:46:38.899Z,97014.59
2022-10-05T05:49:16.954Z,97022.38
2022-10-05T05:51:48.387Z,97026.56
2022-10-05T05:54:27.410Z,97025.03
2022-10-05T05:57:00.554Z,97027.31
2022-10-05T05:59:32.101Z,96967.72
2022-10-05T06:02:05.259Z,97026.91
2022-10-05T06:04:37.105Z,97029.78
2022-10-05T06:07:06.478Z,97029.41
2022-10-05T06:09:38.662Z,97027.31
2022-10-05T06:12:10.192Z,97037.31
2022-10-05T06:14:41.650Z,97028.69
2022-10-05T06:17:14.185Z,97024.63
2022-10-05T06:19:43.086Z,97032.13
2022-10-05T06:22:16.486Z,97036.75
2022-10-05T06:24:54.671Z,97027.97
2022-10-05T06:27:35.002Z,97033.38
2022-10-05T06:30:09.479Z,97030.53
2022-10-05T06:32:51.842Z,97035.72
2022-10-05T06:35:26.941Z,97004.44
2022-10-05T06:38:14.033Z,97032.31
2022-10-05T06:40:54.275Z,97043.28
2022-10-05T06:43:32.389Z,97048.25
2022-10-05T06:46:08.741Z,97050.06
2022-10-05T06:48:59.501Z,97052.06
2022-10-05T06:51:33.951Z,97050.91
2022-10-05T06:54:09.104Z,97060.28
2022-10-05T06:56:45.149Z,97067.19
2022-10-05T06:59:19.528Z,97070.59
2022-10-05T07:01:53.779Z,97064.44
2022-10-05T07:04:42.812Z,97067.34
2022-10-05T07:07:15.963Z,97071.72
2022-10-05T07:09:54.129Z,97067.59
2022-10-05T07:12:49.865Z,97058.38
2022-10-05T07:15:40.816Z,97071.56
2022-10-05T07:18:26.632Z,97051.63
2022-10-05T07:21:00.281Z,97073.84
2022-10-05T07:23:38.707Z,97047.03
2022-10-05T07:26:10.858Z,97076.13
2022-10-05T07:28:46.120Z,97077.16
2022-10-05T07:31:19.946Z,97073.88
2022-10-05T07:33:54.257Z,97066.44
2022-10-05T07:36:50.951Z,97064.84
2022-10-05T07:39:42.011Z,97073.59
2022-10-05T07:42:21.819Z,97070.34
2022-10-05T07:44:55.728Z,97071.25
2022-10-05T07:47:28.307Z,97077.88
2022-10-05T07:50:01.771Z,97073.84
2022-10-05T07:52:35.151Z,97075.84
2022-10-05T07:55:05.524Z,97078.88
2022-10-05T07:57:39.406Z,97045.47
2022-10-05T08:00:14.567Z,97079.69
2022-10-05T08:02:49.066Z,97073.97
2022-10-05T08:05:21.368Z,97076.25
2022-10-05T08:07:52.809Z,97065.53
2022-10-05T08:10:28.890Z,97064.41
2022-10-05T08:13:04.399Z,97063.47
2022-10-05T08:15:37.034Z,97064.38
2022-10-05T08:18:13.257Z,97068.53
2022-10-05T08:20:44.758Z,97047.19
2022-10-05T08:23:22.414Z,97063.47
2022-10-05T08:25:57.788Z,97057.47
2022-10-05T08:28:28.534Z,97055.19
2022-10-05T08:31:02.464Z,96998.44
2022-10-05T08:33:35.943Z,97054.78
2022-10-05T08:36:07.878Z,97066.38
2022-10-05T08:38:35.795Z,97059.81
2022-10-05T08:41:39.254Z,97054.19
2022-10-05T08:44:44.105Z,97061.06
2022-10-05T08:47:22.977Z,97060.16
2022-10-05T08:50:03.840Z,97053.44
2022-10-05T08:52:32.665Z,97057.91
2022-10-05T08:55:37.136Z,97068.47
2022-10-05T08:58:59.156Z,97047.91
2022-10-05T09:01:34.253Z,97063.25
2022-10-05T09:04:20.901Z,97032.13
2022-10-05T09:07:02.062Z,97065.00
2022-10-05T09:09:57.193Z,97066.63
2022-10-05T09:13:06.000Z,97070.47
2022-10-05T09:16:16.894Z,97067.72
2022-10-05T09:19:01.706Z,97065.88
2022-10-05T09:21:44.896Z,97063.94
2022-10-05T09:24:40.733Z,97064.59
2022-10-05T09:27:13.077Z,97060.78
2022-10-05T09:30:15.885Z,97059.97
2022-10-05T09:33:16.390Z,97059.75
2022-10-05T09:36:12.423Z,97056.09
2022-10-05T09:39:00.550Z,97049.75
2022-10-05T09:41:51.473Z,97055.69
2022-10-05T09:44:51.528Z,97054.16
2022-10-05T09:47:45.167Z,97052.44
2022-10-05T09:51:01.631Z,97045.84
2022-10-05T09:53:54.612Z,97058.75
2022-10-05T09:56:45.441Z,97051.66
2022-10-05T09:59:53.140Z,97054.59
2022-10-05T10:02:36.439Z,97051.00
2022-10-05T10:05:29.869Z,97019.09
2022-10-05T10:08:14.597Z,97048.59
2022-10-05T10:11:01.749Z,97045.34
2022-10-05T10:14:00.268Z,97046.81
2022-10-05T10:16:42.347Z,97049.16
2022-10-05T10:19:31.484Z,97033.97
2022-10-05T10:22:32.078Z,97042.94
2022-10-05T10:25:26.841Z,97045.31
2022-10-05T10:28:13.220Z,97041.13
2022-10-05T10:31:13.076Z,97017.84
2022-10-05T10:34:04.665Z,97049.72
2022-10-05T10:36:50.542Z,97044.16
2022-10-05T10:39:23.554Z,97041.63
2022-10-05T10:42:16.991Z,97041.13
2022-10-05T10:45:06.665Z,97034.56
2022-10-05T10:47:48.431Z,97042.53
2022-10-05T10:51:01.999Z,97042.59
2022-10-05T10:54:12.223Z,97045.03
2022-10-05T10:56:50.350Z,97048.59
2022-10-05T11:00:00.336Z,97046.78
2022-10-05T11:02:46.807Z,97035.84
2022-10-05T11:05:29.033Z,97044.69
2022-10-05T11:08:34.277Z,97033.03
2022-10-05T11:11:27.011Z,97031.97
2022-10-05T11:14:27.994Z,96986.16
2022-10-05T11:17:16.116Z,97031.19
2022-10-05T11:20:03.683Z,97026.44
2022-10-05T11:23:06.145Z,97010.91
2022-10-05T11:25:52.254Z,97017.88
2022-10-05T11:28:42.169Z,97012.19
2022-10-05T11:31:41.652Z,97011.88
2022-10-05T11:34:35.153Z,97002.19
2022-10-05T11:37:31.877Z,96997.84
2022-10-05T11:40:33.276Z,96966.63
2022-10-05T11:43:42.961Z,96991.19
2022-10-05T11:46:17.834Z,96984.03
2022-10-05T11:49:00.515Z,96986.94
2022-10-05T11:51:45.751Z,96980.53
2022-10-05T11:54:22.787Z,96981.03
2022-10-05T11:56:54.698Z,96991.44
2022-10-05T11:59:29.917Z,96985.59
2022-10-05T12:02:07.778Z,96954.44
2022-10-05T12:04:40.953Z,96979.41
2022-10-05T12:07:16.082Z,96970.28
2022-10-05T12:10:20.110Z,96948.63
2022-10-05T12:13:08.619Z,96981.91
2022-10-05T12:15:45.005Z,96985.19
2022-10-05T12:18:17.002Z,96984.66
2022-10-05T12:20:48.625Z,96947.22
2022-10-05T12:23:21.879Z,96985.16
2022-10-05T12:25:55.548Z,96969.34
2022-10-05T12:28:28.912Z,96949.28
2022-10-05T12:31:15.774Z,96985.13
2022-10-05T12:33:50.019Z,96982.16
2022-10-05T12:36:21.202Z,96981.59
2022-10-05T12:38:55.868Z,96982.94
2022-10-05T12:41:32.002Z,96989.97
2022-10-05T12:44:12.961Z,96957.53
2022-10-05T12:46:46.932Z,96987.84
2022-10-05T12:49:28.598Z,96985.72
2022-10-05T12:51:59.170Z,96980.66
2022-10-05T12:54:38.789Z,96860.94
2022-10-05T12:57:14.017Z,96982.91
2022-10-05T12:59:45.703Z,96988.13
2022-10-05T13:02:21.421Z,96979.19
2022-10-05T13:04:53.017Z,96983.50
2022-10-05T13:07:38.596Z,96946.09
2022-10-05T13:10:15.694Z,96923.34
2022-10-05T13:12:52.356Z,96949.78
2022-10-05T13:15:25.138Z,96965.00
2022-10-05T13:18:00.729Z,96974.78
2022-10-05T13:20:32.631Z,96973.06
2022-10-05T13:23:04.688Z,96969.13
2022-10-05T13:25:34.334Z,96973.88
2022-10-05T13:28:16.827Z,96972.81
2022-10-05T13:30:53.759Z,96943.44
2022-10-05T13:33:28.437Z,96919.63
2022-10-05T13:36:01.562Z,96870.09
2022-10-05T13:38:39.813Z,96963.81
2022-10-05T13:41:14.977Z,96965.94
2022-10-05T13:43:50.627Z,96960.53
2022-10-05T13:46:24.754Z,96963.50
2022-10-05T13:49:01.405Z,96934.72
2022-10-05T13:51:32.086Z,96963.72
2022-10-05T13:54:05.871Z,96935.34
2022-10-05T13:56:35.909Z,96958.34
2022-10-05T13:59:15.114Z,96955.53
2022-10-05T14:01:45.344Z,96928.88
2022-10-05T14:04:18.107Z,96946.72
2022-10-05T14:06:46.476Z,96956.13
2022-10-05T14:09:28.561Z,96917.28
2022-10-05T14:12:13.271Z,96917.38
2022-10-05T14:14:48.416Z,96934.38
2022-10-05T14:17:18.222Z,96949.53
2022-10-05T14:19:51.115Z,96951.13
2022-10-05T14:22:23.390Z,96942.91
2022-10-05T14:24:53.324Z,96944.59
2022-10-05T14:27:24.209Z,96950.97
2022-10-05T14:30:02.937Z,96948.25
2022-10-05T14:32:32.896Z,96889.25
2022-10-05T14:35:06.212Z,96945.56
2022-10-05T14:37:44.681Z,96940.22
2022-10-05T14:40:28.403Z,96953.50
2022-10-05T14:42:56.755Z,96954.81
2022-10-05T14:45:29.876Z,96954.50
2022-10-05T14:48:09.841Z,96958.75
2022-10-05T14:50:52.901Z,96956.31
2022-10-05T14:53:21.800Z,96953.50
2022-10-05T14:56:17.143Z,96966.13
2022-10-05T14:59:04.433Z,96950.06
2022-10-05T15:01:35.908Z,96958.38
2022-10-05T15:04:16.297Z,96957.44
2022-10-05T15:06:53.359Z,96956.41
2022-10-05T15:09:36.579Z,96954.19
2022-10-05T15:12:04.742Z,96949.16
2022-10-05T15:14:35.545Z,96959.13
2022-10-05T15:17:07.576Z,96932.28
2022-10-05T15:19:44.830Z,96942.47
2022-10-05T15:22:22.932Z,96862.13
2022-10-05T15:24:58.389Z,96944.00
2022-10-05T15:27:31.923Z,96882.75
2022-10-05T15:30:06.326Z,96927.13
2022-10-05T15:32:42.762Z,96950.44
2022-10-05T15:35:30.808Z,96945.53
2022-10-05T15:38:03.469Z,96949.97
2022-10-05T15:40:37.334Z,96917.53
2022-10-05T15:43:11.355Z,96938.25
2022-10-05T15:45:45.277Z,96958.41
2022-10-05T15:48:20.006Z,96928.41
2022-10-05T15:50:56.967Z,96953.72
2022-10-05T15:53:29.197Z,96956.38
2022-10-05T15:56:01.111Z,96957.19
2022-10-05T15:58:45.621Z,96956.94
2022-10-05T16:01:17.514Z,96965.91
2022-10-05T16:03:51.482Z,96965.03
2022-10-05T16:06:54.246Z,96965.75
2022-10-05T16:09:37.374Z,96966.09
2022-10-05T16:12:14.994Z,96949.47
2022-10-05T16:14:55.851Z,96973.53
2022-10-05T16:17:36.844Z,96970.25
2022-10-05T16:20:18.037Z,96972.16
2022-10-05T16:22:49.604Z,96966.13
2022-10-05T16:25:23.324Z,96966.88
2022-10-05T16:28:05.729Z,96969.56
2022-10-05T16:30:42.134Z,96960.75
2022-10-05T16:33:13.192Z,96949.84
2022-10-05T16:35:49.517Z,96956.66
2022-10-05T16:38:26.867Z,96970.28
2022-10-05T16:41:02.385Z,96964.50
2022-10-05T16:43:39.920Z,96969.75
2022-10-05T16:46:13.792Z,96962.47
2022-10-05T16:48:49.038Z,96951.97
2022-10-05T16:51:29.822Z,96929.84
2022-10-05T16:54:03.429Z,96951.22
2022-10-05T16:56:37.897Z,96958.03
2022-10-05T16:59:24.006Z,96962.22
2022-10-05T17:02:00.821Z,96958.50
2022-10-05T17:04:39.103Z,96967.75
2022-10-05T17:07:30.015Z,96955.50
2022-10-05T17:10:24.401Z,96926.84
2022-10-05T17:13:02.058Z,96969.16
2022-10-05T17:15:37.269Z,96920.22
2022-10-05T17:18:23.835Z,96974.34
2022-10-05T17:20:56.884Z,96974.47
2022-10-05T17:23:32.501Z,96959.25
2022-10-05T17:26:09.361Z,96976.31
2022-10-05T17:28:38.932Z,96968.88
2022-10-05T17:31:14.171Z,96977.91
2022-10-05T17:34:19.467Z,96980.47
2022-10-05T17:36:49.567Z,96982.50
2022-10-05T17:39:20.524Z,96978.41
2022-10-05T17:41:49.127Z,96978.25
2022-10-05T17:44:27.920Z,96971.91
2022-10-05T17:46:59.913Z,96948.13
2022-10-05T17:50:10.908Z,96973.53
2022-10-05T17:53:01.285Z,96963.66
2022-10-05T17:55:42.929Z,96953.97
2022-10-05T17:59:02.970Z,96976.47
2022-10-05T18:01:33.948Z,96910.94
2022-10-05T18:04:34.470Z,96945.56
2022-10-05T18:07:16.997Z,96968.94
2022-10-05T18:10:21.556Z,96972.81
2022-10-05T18:12:52.267Z,96978.88
2022-10-05T18:15:48.693Z,96973.09
2022-10-05T18:18:55.868Z,96967.53
2022-10-05T18:21:39.123Z,96961.91
2022-10-05T18:24:43.205Z,96974.69
2022-10-05T18:27:36.654Z,96969.00
2022-10-05T18:30:15.026Z,96967.25
2022-10-05T18:33:22.082Z,96972.81
2022-10-05T18:36:07.397Z,96980.50
2022-10-05T18:38:51.276Z,96977.94
2022-10-05T18:41:28.632Z,96978.84
2022-10-05T18:44:06.396Z,96976.44
2022-10-05T18:46:43.753Z,96901.66
2022-10-05T18:49:24.816Z,96973.34
2022-10-05T18:51:57.179Z,96974.88
2022-10-05T18:54:44.926Z,96973.84
2022-10-05T18:57:46.514Z,96982.09
2022-10-05T19:00:16.975Z,96956.97
2022-10-05T19:02:49.885Z,96897.75
2022-10-05T19:08:20.715Z,96971.97
2022-10-05T19:10:51.943Z,96935.81
2022-10-05T19:13:34.474Z,96966.84
2022-10-05T19:16:12.355Z,96974.50
2022-10-05T19:18:52.858Z,96929.47
2022-10-05T19:21:26.622Z,96976.94
2022-10-05T19:24:15.156Z,96976.19
2022-10-05T19:26:56.445Z,96997.47
2022-10-05T19:29:38.150Z,96996.06
2022-10-05T19:32:10.068Z,96996.41
2022-10-05T19:34:50.121Z,96919.09
2022-10-05T19:37:21.894Z,97006.94
2022-10-05T19:39:54.762Z,96993.50
2022-10-05T19:42:53.485Z,97010.22
2022-10-05T19:45:24.239Z,96984.00
2022-10-05T19:48:02.393Z,96965.88
2022-10-05T19:50:33.722Z,97016.47
2022-10-05T19:53:04.125Z,97017.03
2022-10-05T19:55:37.722Z,97023.03
2022-10-05T19:58:18.802Z,97023.91
2022-10-05T20:00:54.506Z,97025.59
2022-10-05T20:03:27.614Z,97030.94
2022-10-05T20:05:58.314Z,97037.97
2022-10-05T20:08:27.676Z,97029.06
2022-10-05T20:11:07.753Z,97040.78
2022-10-05T20:13:35.937Z,97037.56
2022-10-05T20:16:26.506Z,97042.97
2022-10-05T20:19:12.580Z,97008.06
2022-10-05T20:21:47.658Z,97053.81
2022-10-05T20:24:17.235Z,97021.47
2022-10-05T20:27:05.098Z,97056.41
2022-10-05T20:29:36.507Z,97054.16
2022-10-05T20:32:08.773Z,96968.66
2022-10-05T20:34:38.002Z,97060.53
2022-10-05T20:37:07.322Z,97070.22
2022-10-05T20:39:35.270Z,97063.22
2022-10-05T20:42:03.161Z,97073.03
2022-10-05T20:44:31.150Z,97079.28
2022-10-05T20:47:01.331Z,97077.34
2022-10-05T20:49:31.043Z,97086.25
2022-10-05T20:51:59.590Z,97075.69
2022-10-05T20:54:28.986Z,97078.34
2022-10-05T20:56:57.221Z,97017.72
2022-10-05T20:59:26.131Z,97087.69
2022-10-05T21:01:54.126Z,97047.25
2022-10-05T21:04:23.851Z,96995.78
2022-10-05T21:06:52.897Z,97087.72
2022-10-05T21:09:21.667Z,97093.63
2022-10-05T21:11:52.907Z,97034.09
2022-10-05T21:14:20.850Z,97048.34
2022-10-05T21:16:48.891Z,97089.88
2022-10-05T21:19:17.373Z,97097.03
2022-10-05T21:21:46.746Z,97060.13
2022-10-05T21:24:15.824Z,97095.31
2022-10-05T21:26:44.409Z,97100.28
2022-10-05T21:29:14.035Z,97046.13
2022-10-05T21:31:42.246Z,97091.28
2022-10-05T21:34:10.215Z,97093.34
2022-10-05T21:36:38.224Z,97036.19
2022-10-05T21:39:06.134Z,97105.28
2022-10-05T21:41:34.189Z,97053.56
2022-10-05T21:44:02.134Z,97096.38
2022-10-05T21:46:31.646Z,97105.16
2022-10-05T21:48:59.605Z,97105.03
2022-10-05T21:51:27.863Z,96988.00
2022-10-05T21:53:58.354Z,96999.13
2022-10-05T21:56:29.660Z,97102.72
2022-10-05T21:58:57.585Z,97075.47
2022-10-05T22:01:25.690Z,97105.09
2022-10-05T22:03:55.123Z,97089.13
2022-10-05T22:06:23.080Z,97097.31
2022-10-05T22:08:51.031Z,97103.53
2022-10-05T22:11:19.459Z,97112.38
2022-10-05T22:13:49.370Z,97107.69
2022-10-05T22:16:18.590Z,97001.19
2022-10-05T22:18:46.981Z,97107.44
2022-10-05T22:21:16.984Z,97108.50
2022-10-05T22:23:46.904Z,97108.38
2022-10-05T22:26:17.446Z,97108.97
2022-10-05T22:28:46.697Z,97106.28
2022-10-05T22:31:15.045Z,97058.69
2022-10-05T22:33:43.016Z,97103.56
2022-10-05T22:36:11.070Z,97101.09
2022-10-05T22:38:40.369Z,97102.75
2022-10-05T22:41:11.400Z,97103.63
2022-10-05T22:43:39.423Z,97100.44
2022-10-05T22:46:10.282Z,97107.31
2022-10-05T22:48:38.411Z,97100.56
2022-10-05T22:51:06.745Z,97092.50
2022-10-05T22:53:34.863Z,97109.22
2022-10-05T22:56:08.860Z,97078.94
2022-10-05T22:58:37.349Z,97116.72
2022-10-05T23:01:06.660Z,97114.81
2022-10-05T23:03:34.927Z,97116.28
2022-10-05T23:06:04.749Z,97090.31
2022-10-05T23:08:33.266Z,97111.50
2022-10-05T23:11:02.917Z,97092.34
2022-10-05T23:13:32.995Z,97076.41
2022-10-05T23:16:06.911Z,97113.13
2022-10-05T23:18:35.343Z,97103.47
2022-10-05T23:21:03.367Z,97108.06
2022-10-05T23:23:31.346Z,97110.59
2022-10-05T23:26:02.690Z,97101.56
2022-10-05T23:28:32.637Z,97119.28
2022-10-05T23:31:01.553Z,97106.22
2022-10-05T23:33:29.588Z,97089.84
2022-10-05T23:36:01.021Z,97118.78
2022-10-05T23:38:29.982Z,97125.69
2022-10-05T23:40:59.867Z,97098.38
2022-10-05T23:43:28.292Z,97128.03
2022-10-05T23:45:58.122Z,97091.91
2022-10-05T23:48:26.717Z,97092.59
2022-10-05T23:50:55.742Z,97120.25
2022-10-05T23:53:23.940Z,97109.75
2022-10-05T23:55:52.166Z,97112.22
2022-10-05T23:58:20.578Z,97139.78
